sensor_id;sensor_type;location;lat;lon;timestamp;noise_LAeq;noise_LA_min;noise_LA_max;noise_LA01;noise_LA95
67900;Laerm;54700;51.796;10.956;2023-02-11T00:01:49;34.83;30.02;47.99;;
67900;Laerm;54700;51.796;10.956;2023-02-11T00:04:16;50.81;29.25;67.63;;
67900;Laerm;54700;51.796;10.956;2023-02-11T00:06:43;52.54;29.69;69.36;;
67900;Laerm;54700;51.796;10.956;2023-02-11T00:09:11;34.45;30.64;47.85;;
67900;Laerm;54700;51.796;10.956;2023-02-11T00:11:38;47.91;31.00;63.11;;
67900;Laerm;54700;51.796;10.956;2023-02-11T00:14:05;37.52;31.44;54.03;;
67900;Laerm;54700;51.796;10.956;2023-02-11T00:16:33;41.76;30.33;59.60;;
67900;Laerm;54700;51.796;10.956;2023-02-11T00:19:01;39.78;31.54;59.54;;
67900;Laerm;54700;51.796;10.956;2023-02-11T00:21:28;38.15;31.13;55.52;;
67900;Laerm;54700;51.796;10.956;2023-02-11T00:23:55;54.17;31.21;71.21;;
67900;Laerm;54700;51.796;10.956;2023-02-11T00:26:27;49.57;31.92;66.64;;
67900;Laerm;54700;51.796;10.956;2023-02-11T00:28:56;43.86;30.28;66.15;;
67900;Laerm;54700;51.796;10.956;2023-02-11T00:31:24;42.86;30.34;59.54;;
67900;Laerm;54700;51.796;10.956;2023-02-11T00:33:51;54.65;30.79;69.29;;
67900;Laerm;54700;51.796;10.956;2023-02-11T00:36:19;53.15;30.99;65.84;;
67900;Laerm;54700;51.796;10.956;2023-02-11T00:38:48;48.91;29.60;67.87;;
67900;Laerm;54700;51.796;10.956;2023-02-11T00:41:15;49.87;29.26;66.90;;
67900;Laerm;54700;51.796;10.956;2023-02-11T00:43:44;38.51;29.26;59.69;;
67900;Laerm;54700;51.796;10.956;2023-02-11T00:46:11;39.11;30.14;60.59;;
67900;Laerm;54700;51.796;10.956;2023-02-11T00:48:37;50.32;29.64;66.84;;
67900;Laerm;54700;51.796;10.956;2023-02-11T00:51:05;47.14;29.34;65.08;;
67900;Laerm;54700;51.796;10.956;2023-02-11T00:53:32;35.23;30.23;52.84;;
67900;Laerm;54700;51.796;10.956;2023-02-11T00:55:59;51.95;30.80;68.96;;
67900;Laerm;54700;51.796;10.956;2023-02-11T00:58:26;53.84;31.77;67.39;;
67900;Laerm;54700;51.796;10.956;2023-02-11T01:00:55;48.98;30.24;64.97;;
67900;Laerm;54700;51.796;10.956;2023-02-11T01:03:22;35.12;30.34;50.98;;
67900;Laerm;54700;51.796;10.956;2023-02-11T01:05:48;36.57;30.18;46.33;;
67900;Laerm;54700;51.796;10.956;2023-02-11T01:08:15;55.57;33.80;71.99;;
67900;Laerm;54700;51.796;10.956;2023-02-11T01:10:42;37.89;30.75;51.29;;
67900;Laerm;54700;51.796;10.956;2023-02-11T01:13:09;51.19;30.40;67.51;;
67900;Laerm;54700;51.796;10.956;2023-02-11T01:15:36;47.71;28.71;65.01;;
67900;Laerm;54700;51.796;10.956;2023-02-11T01:18:05;29.84;27.73;39.17;;
67900;Laerm;54700;51.796;10.956;2023-02-11T01:20:31;53.15;27.69;68.46;;
67900;Laerm;54700;51.796;10.956;2023-02-11T01:22:58;50.72;28.08;64.50;;
67900;Laerm;54700;51.796;10.956;2023-02-11T01:25:25;31.02;28.28;42.18;;
67900;Laerm;54700;51.796;10.956;2023-02-11T01:27:52;30.87;28.68;38.82;;
67900;Laerm;54700;51.796;10.956;2023-02-11T01:30:18;31.27;28.59;38.71;;
67900;Laerm;54700;51.796;10.956;2023-02-11T01:32:45;48.49;29.02;64.43;;
67900;Laerm;54700;51.796;10.956;2023-02-11T01:35:13;31.56;28.23;39.79;;
67900;Laerm;54700;51.796;10.956;2023-02-11T01:37:40;54.24;28.62;66.06;;
67900;Laerm;54700;51.796;10.956;2023-02-11T01:40:11;33.14;28.63;50.29;;
67900;Laerm;54700;51.796;10.956;2023-02-11T01:42:38;50.64;28.05;67.04;;
67900;Laerm;54700;51.796;10.956;2023-02-11T01:45:49;30.03;27.83;38.31;;
67900;Laerm;54700;51.796;10.956;2023-02-11T01:48:21;51.07;27.74;70.06;;
67900;Laerm;54700;51.796;10.956;2023-02-11T01:50:54;50.18;28.12;65.98;;
67900;Laerm;54700;51.796;10.956;2023-02-11T01:53:23;29.70;27.92;40.30;;
67900;Laerm;54700;51.796;10.956;2023-02-11T01:56:07;51.30;27.76;68.49;;
67900;Laerm;54700;51.796;10.956;2023-02-11T01:58:59;32.83;28.34;49.94;;
67900;Laerm;54700;51.796;10.956;2023-02-11T02:01:29;53.38;28.18;70.20;;
67900;Laerm;54700;51.796;10.956;2023-02-11T02:04:00;32.60;28.02;40.74;;
67900;Laerm;54700;51.796;10.956;2023-02-11T02:06:33;32.03;28.55;38.73;;
67900;Laerm;54700;51.796;10.956;2023-02-11T02:09:04;55.23;28.75;69.21;;
67900;Laerm;54700;51.796;10.956;2023-02-11T02:11:33;31.24;28.26;39.64;;
67900;Laerm;54700;51.796;10.956;2023-02-11T02:14:00;52.20;28.49;69.65;;
67900;Laerm;54700;51.796;10.956;2023-02-11T02:16:30;33.16;28.66;43.43;;
67900;Laerm;54700;51.796;10.956;2023-02-11T02:19:15;32.84;28.56;47.06;;
67900;Laerm;54700;51.796;10.956;2023-02-11T02:22:22;30.88;28.30;38.43;;
67900;Laerm;54700;51.796;10.956;2023-02-11T02:25:18;31.85;28.27;41.76;;
67900;Laerm;54700;51.796;10.956;2023-02-11T02:27:54;29.67;27.82;37.94;;
67900;Laerm;54700;51.796;10.956;2023-02-11T02:33:39;31.03;28.25;37.45;;
67900;Laerm;54700;51.796;10.956;2023-02-11T02:36:13;30.37;28.29;36.84;;
67900;Laerm;54700;51.796;10.956;2023-02-11T02:38:48;29.79;28.12;37.78;;
67900;Laerm;54700;51.796;10.956;2023-02-11T02:41:18;32.58;27.67;51.25;;
67900;Laerm;54700;51.796;10.956;2023-02-11T02:43:47;54.55;28.21;71.04;;
67900;Laerm;54700;51.796;10.956;2023-02-11T02:46:16;30.91;28.43;38.73;;
67900;Laerm;54700;51.796;10.956;2023-02-11T02:48:45;34.03;28.86;42.03;;
67900;Laerm;54700;51.796;10.956;2023-02-11T02:57:29;30.81;28.20;44.77;;
67900;Laerm;54700;51.796;10.956;2023-02-11T03:00:07;30.73;28.28;39.14;;
67900;Laerm;54700;51.796;10.956;2023-02-11T03:02:43;49.91;28.79;66.11;;
67900;Laerm;54700;51.796;10.956;2023-02-11T03:05:17;30.36;28.20;37.99;;
67900;Laerm;54700;51.796;10.956;2023-02-11T03:07:55;30.25;27.46;38.29;;
67900;Laerm;54700;51.796;10.956;2023-02-11T03:10:28;40.41;28.01;62.30;;
67900;Laerm;54700;51.796;10.956;2023-02-11T03:12:56;52.19;28.45;68.71;;
67900;Laerm;54700;51.796;10.956;2023-02-11T03:15:26;32.42;29.30;39.16;;
67900;Laerm;54700;51.796;10.956;2023-02-11T03:17:57;32.80;29.25;40.13;;
67900;Laerm;54700;51.796;10.956;2023-02-11T03:20:29;31.17;28.76;38.82;;
67900;Laerm;54700;51.796;10.956;2023-02-11T03:23:06;31.59;28.76;38.58;;
67900;Laerm;54700;51.796;10.956;2023-02-11T03:25:40;31.95;28.40;40.42;;
67900;Laerm;54700;51.796;10.956;2023-02-11T03:28:15;51.34;28.88;68.22;;
67900;Laerm;54700;51.796;10.956;2023-02-11T03:30:48;35.06;30.34;56.08;;
67900;Laerm;54700;51.796;10.956;2023-02-11T03:33:23;42.65;30.68;61.25;;
67900;Laerm;54700;51.796;10.956;2023-02-11T03:35:56;34.03;30.73;42.73;;
67900;Laerm;54700;51.796;10.956;2023-02-11T03:38:27;34.99;31.34;43.48;;
67900;Laerm;54700;51.796;10.956;2023-02-11T03:40:57;34.37;30.43;41.83;;
67900;Laerm;54700;51.796;10.956;2023-02-11T03:43:27;37.46;32.79;52.08;;
67900;Laerm;54700;51.796;10.956;2023-02-11T03:45:56;41.03;31.11;53.33;;
67900;Laerm;54700;51.796;10.956;2023-02-11T03:48:26;38.98;31.22;60.99;;
67900;Laerm;54700;51.796;10.956;2023-02-11T03:50:57;41.22;31.60;68.68;;
67900;Laerm;54700;51.796;10.956;2023-02-11T03:53:26;38.53;31.44;55.91;;
67900;Laerm;54700;51.796;10.956;2023-02-11T03:55:55;38.26;32.15;52.82;;
67900;Laerm;54700;51.796;10.956;2023-02-11T03:58:25;55.40;33.48;70.44;;
67900;Laerm;54700;51.796;10.956;2023-02-11T04:00:52;40.54;34.94;57.43;;
67900;Laerm;54700;51.796;10.956;2023-02-11T04:03:21;51.28;33.81;67.85;;
67900;Laerm;54700;51.796;10.956;2023-02-11T04:05:48;43.24;32.89;58.59;;
67900;Laerm;54700;51.796;10.956;2023-02-11T04:08:16;52.68;32.72;69.18;;
67900;Laerm;54700;51.796;10.956;2023-02-11T04:10:43;51.05;32.62;67.95;;
67900;Laerm;54700;51.796;10.956;2023-02-11T04:13:10;46.59;32.12;69.56;;
67900;Laerm;54700;51.796;10.956;2023-02-11T04:15:36;50.13;33.18;65.87;;
67900;Laerm;54700;51.796;10.956;2023-02-11T04:18:03;53.91;32.76;70.97;;
67900;Laerm;54700;51.796;10.956;2023-02-11T04:20:31;49.79;31.92;68.03;;
67900;Laerm;54700;51.796;10.956;2023-02-11T04:22:58;53.71;32.98;66.90;;
67900;Laerm;54700;51.796;10.956;2023-02-11T04:25:26;35.32;31.35;47.44;;
67900;Laerm;54700;51.796;10.956;2023-02-11T04:27:53;37.34;31.82;49.04;;
67900;Laerm;54700;51.796;10.956;2023-02-11T04:30:21;52.23;33.82;63.83;;
67900;Laerm;54700;51.796;10.956;2023-02-11T04:32:48;41.90;30.69;59.23;;
67900;Laerm;54700;51.796;10.956;2023-02-11T04:35:15;49.98;32.31;68.23;;
67900;Laerm;54700;51.796;10.956;2023-02-11T04:37:42;54.44;30.75;71.46;;
67900;Laerm;54700;51.796;10.956;2023-02-11T04:40:09;52.89;32.42;67.24;;
67900;Laerm;54700;51.796;10.956;2023-02-11T04:42:37;56.84;29.72;69.17;;
67900;Laerm;54700;51.796;10.956;2023-02-11T04:45:05;49.28;29.44;64.21;;
67900;Laerm;54700;51.796;10.956;2023-02-11T04:47:32;56.75;33.37;69.37;;
67900;Laerm;54700;51.796;10.956;2023-02-11T04:49:59;53.24;30.52;67.77;;
67900;Laerm;54700;51.796;10.956;2023-02-11T04:52:25;47.02;29.76;67.22;;
67900;Laerm;54700;51.796;10.956;2023-02-11T04:54:52;51.39;31.82;66.88;;
67900;Laerm;54700;51.796;10.956;2023-02-11T04:57:19;56.38;30.42;70.86;;
67900;Laerm;54700;51.796;10.956;2023-02-11T04:59:47;49.83;29.59;66.07;;
67900;Laerm;54700;51.796;10.956;2023-02-11T05:02:14;52.65;29.74;68.16;;
67900;Laerm;54700;51.796;10.956;2023-02-11T05:04:43;46.50;30.28;63.31;;
67900;Laerm;54700;51.796;10.956;2023-02-11T05:07:10;58.28;30.25;72.53;;
67900;Laerm;54700;51.796;10.956;2023-02-11T05:09:37;56.65;30.87;69.35;;
67900;Laerm;54700;51.796;10.956;2023-02-11T05:12:04;55.01;30.15;67.85;;
67900;Laerm;54700;51.796;10.956;2023-02-11T05:14:31;48.59;30.44;64.41;;
67900;Laerm;54700;51.796;10.956;2023-02-11T05:16:59;56.03;31.84;71.41;;
67900;Laerm;54700;51.796;10.956;2023-02-11T05:19:26;50.66;32.48;66.90;;
67900;Laerm;54700;51.796;10.956;2023-02-11T05:21:53;48.74;34.68;63.76;;
67900;Laerm;54700;51.796;10.956;2023-02-11T05:24:20;37.05;32.33;44.49;;
67900;Laerm;54700;51.796;10.956;2023-02-11T05:26:46;53.96;31.94;68.35;;
67900;Laerm;54700;51.796;10.956;2023-02-11T05:29:13;53.80;33.10;67.17;;
67900;Laerm;54700;51.796;10.956;2023-02-11T05:31:40;53.00;32.30;64.88;;
67900;Laerm;54700;51.796;10.956;2023-02-11T05:34:08;58.03;34.94;73.39;;
67900;Laerm;54700;51.796;10.956;2023-02-11T05:36:35;59.16;34.41;70.39;;
67900;Laerm;54700;51.796;10.956;2023-02-11T05:39:02;54.15;34.60;68.95;;
67900;Laerm;54700;51.796;10.956;2023-02-11T05:41:29;53.74;32.05;68.00;;
67900;Laerm;54700;51.796;10.956;2023-02-11T05:43:56;54.08;31.03;67.87;;
67900;Laerm;54700;51.796;10.956;2023-02-11T05:46:23;50.77;31.61;68.52;;
67900;Laerm;54700;51.796;10.956;2023-02-11T05:48:49;55.38;31.95;72.10;;
67900;Laerm;54700;51.796;10.956;2023-02-11T05:51:17;56.65;32.15;70.43;;
67900;Laerm;54700;51.796;10.956;2023-02-11T05:53:44;49.86;31.59;67.29;;
67900;Laerm;54700;51.796;10.956;2023-02-11T05:56:11;54.84;31.51;69.57;;
67900;Laerm;54700;51.796;10.956;2023-02-11T05:58:39;56.30;31.73;70.08;;
67900;Laerm;54700;51.796;10.956;2023-02-11T06:01:06;57.68;33.86;71.21;;
67900;Laerm;54700;51.796;10.956;2023-02-11T06:03:32;58.27;33.73;71.41;;
67900;Laerm;54700;51.796;10.956;2023-02-11T06:05:59;56.83;32.94;73.79;;
67900;Laerm;54700;51.796;10.956;2023-02-11T06:08:27;57.70;33.56;69.31;;
67900;Laerm;54700;51.796;10.956;2023-02-11T06:10:54;52.59;33.32;67.08;;
67900;Laerm;54700;51.796;10.956;2023-02-11T06:13:21;51.54;31.86;69.88;;
67900;Laerm;54700;51.796;10.956;2023-02-11T06:15:55;49.08;30.96;66.37;;
67900;Laerm;54700;51.796;10.956;2023-02-11T06:18:21;56.93;32.11;70.34;;
67900;Laerm;54700;51.796;10.956;2023-02-11T06:20:48;35.69;32.04;42.26;;
67900;Laerm;54700;51.796;10.956;2023-02-11T06:23:18;52.48;31.69;66.39;;
67900;Laerm;54700;51.796;10.956;2023-02-11T06:25:46;51.64;32.31;66.96;;
67900;Laerm;54700;51.796;10.956;2023-02-11T06:28:13;59.96;32.50;71.34;;
67900;Laerm;54700;51.796;10.956;2023-02-11T06:30:41;51.46;34.30;67.08;;
67900;Laerm;54700;51.796;10.956;2023-02-11T06:33:08;58.05;34.64;70.68;;
67900;Laerm;54700;51.796;10.956;2023-02-11T06:35:37;60.31;37.05;69.82;;
67900;Laerm;54700;51.796;10.956;2023-02-11T06:38:04;58.52;34.24;69.67;;
67900;Laerm;54700;51.796;10.956;2023-02-11T06:40:31;57.42;33.90;74.26;;
67900;Laerm;54700;51.796;10.956;2023-02-11T06:42:58;55.81;34.84;69.71;;
67900;Laerm;54700;51.796;10.956;2023-02-11T06:45:25;58.98;35.48;71.93;;
67900;Laerm;54700;51.796;10.956;2023-02-11T06:47:52;55.72;35.57;69.07;;
67900;Laerm;54700;51.796;10.956;2023-02-11T06:50:19;59.76;36.95;73.50;;
67900;Laerm;54700;51.796;10.956;2023-02-11T06:52:46;56.72;35.18;69.73;;
67900;Laerm;54700;51.796;10.956;2023-02-11T06:55:13;58.39;34.39;68.96;;
67900;Laerm;54700;51.796;10.956;2023-02-11T06:57:40;54.99;34.34;66.93;;
67900;Laerm;54700;51.796;10.956;2023-02-11T07:00:10;53.72;36.27;67.10;;
67900;Laerm;54700;51.796;10.956;2023-02-11T07:02:37;58.06;38.32;70.31;;
67900;Laerm;54700;51.796;10.956;2023-02-11T07:05:05;62.17;42.22;71.56;;
67900;Laerm;54700;51.796;10.956;2023-02-11T07:07:32;55.18;39.30;66.92;;
67900;Laerm;54700;51.796;10.956;2023-02-11T07:09:59;57.74;37.45;72.07;;
67900;Laerm;54700;51.796;10.956;2023-02-11T07:12:27;60.04;39.26;72.01;;
67900;Laerm;54700;51.796;10.956;2023-02-11T07:14:55;58.00;36.89;69.80;;
67900;Laerm;54700;51.796;10.956;2023-02-11T07:17:23;56.19;37.04;68.85;;
67900;Laerm;54700;51.796;10.956;2023-02-11T07:19:50;57.29;38.22;67.38;;
67900;Laerm;54700;51.796;10.956;2023-02-11T07:22:16;52.92;36.97;68.95;;
67900;Laerm;54700;51.796;10.956;2023-02-11T07:24:43;57.81;40.29;73.17;;
67900;Laerm;54700;51.796;10.956;2023-02-11T07:27:10;59.66;38.34;71.65;;
67900;Laerm;54700;51.796;10.956;2023-02-11T07:29:37;60.11;38.85;73.06;;
67900;Laerm;54700;51.796;10.956;2023-02-11T07:32:04;60.17;40.72;70.25;;
67900;Laerm;54700;51.796;10.956;2023-02-11T07:34:32;62.75;41.40;76.21;;
67900;Laerm;54700;51.796;10.956;2023-02-11T07:36:59;58.25;36.48;70.52;;
67900;Laerm;54700;51.796;10.956;2023-02-11T07:39:26;61.40;42.22;69.13;;
67900;Laerm;54700;51.796;10.956;2023-02-11T07:41:54;61.52;40.86;69.65;;
67900;Laerm;54700;51.796;10.956;2023-02-11T07:44:21;60.27;37.31;70.31;;
67900;Laerm;54700;51.796;10.956;2023-02-11T07:46:48;59.76;40.49;71.78;;
67900;Laerm;54700;51.796;10.956;2023-02-11T07:49:17;60.12;41.15;69.65;;
67900;Laerm;54700;51.796;10.956;2023-02-11T07:51:45;61.75;43.34;71.44;;
67900;Laerm;54700;51.796;10.956;2023-02-11T07:54:14;59.34;38.27;70.74;;
67900;Laerm;54700;51.796;10.956;2023-02-11T07:56:41;57.23;40.17;67.94;;
67900;Laerm;54700;51.796;10.956;2023-02-11T07:59:09;59.12;37.89;69.29;;
67900;Laerm;54700;51.796;10.956;2023-02-11T08:01:39;58.21;37.53;70.86;;
67900;Laerm;54700;51.796;10.956;2023-02-11T08:04:05;60.38;38.61;69.84;;
67900;Laerm;54700;51.796;10.956;2023-02-11T08:06:33;59.13;37.42;68.72;;
67900;Laerm;54700;51.796;10.956;2023-02-11T08:09:04;59.62;39.28;69.16;;
67900;Laerm;54700;51.796;10.956;2023-02-11T08:11:31;56.77;36.50;69.32;;
67900;Laerm;54700;51.796;10.956;2023-02-11T08:13:58;59.75;42.23;70.60;;
67900;Laerm;54700;51.796;10.956;2023-02-11T08:16:26;60.81;38.40;71.74;;
67900;Laerm;54700;51.796;10.956;2023-02-11T08:18:55;58.92;38.42;69.35;;
67900;Laerm;54700;51.796;10.956;2023-02-11T08:21:23;59.32;38.49;70.42;;
67900;Laerm;54700;51.796;10.956;2023-02-11T08:23:50;62.90;41.46;72.31;;
67900;Laerm;54700;51.796;10.956;2023-02-11T08:26:20;60.50;39.92;70.15;;
67900;Laerm;54700;51.796;10.956;2023-02-11T08:28:48;58.52;38.29;70.19;;
67900;Laerm;54700;51.796;10.956;2023-02-11T08:31:17;62.20;39.79;69.40;;
67900;Laerm;54700;51.796;10.956;2023-02-11T08:33:45;62.40;38.67;71.93;;
67900;Laerm;54700;51.796;10.956;2023-02-11T08:36:14;61.62;43.36;70.48;;
67900;Laerm;54700;51.796;10.956;2023-02-11T08:38:43;63.44;39.48;76.86;;
67900;Laerm;54700;51.796;10.956;2023-02-11T08:41:10;64.24;46.96;72.23;;
67900;Laerm;54700;51.796;10.956;2023-02-11T08:43:41;62.08;39.59;72.90;;
67900;Laerm;54700;51.796;10.956;2023-02-11T08:46:12;63.08;48.00;72.80;;
67900;Laerm;54700;51.796;10.956;2023-02-11T08:48:39;59.88;40.58;69.53;;
67900;Laerm;54700;51.796;10.956;2023-02-11T08:51:07;57.94;37.02;69.39;;
67900;Laerm;54700;51.796;10.956;2023-02-11T08:53:34;64.69;51.88;74.32;;
67900;Laerm;54700;51.796;10.956;2023-02-11T08:56:01;63.24;37.67;73.16;;
67900;Laerm;54700;51.796;10.956;2023-02-11T08:58:27;61.68;39.24;71.55;;
67900;Laerm;54700;51.796;10.956;2023-02-11T09:00:56;61.36;39.72;70.14;;
67900;Laerm;54700;51.796;10.956;2023-02-11T09:03:25;62.85;51.45;70.17;;
67900;Laerm;54700;51.796;10.956;2023-02-11T09:05:52;63.23;42.75;72.51;;
67900;Laerm;54700;51.796;10.956;2023-02-11T09:08:19;62.99;42.46;71.69;;
67900;Laerm;54700;51.796;10.956;2023-02-11T09:10:46;62.07;40.32;70.96;;
67900;Laerm;54700;51.796;10.956;2023-02-11T09:13:13;62.30;43.52;70.38;;
67900;Laerm;54700;51.796;10.956;2023-02-11T09:15:43;60.47;45.56;70.02;;
67900;Laerm;54700;51.796;10.956;2023-02-11T09:18:12;61.06;38.61;72.02;;
67900;Laerm;54700;51.796;10.956;2023-02-11T09:20:39;60.82;39.22;70.99;;
67900;Laerm;54700;51.796;10.956;2023-02-11T09:23:06;62.76;44.71;71.70;;
67900;Laerm;54700;51.796;10.956;2023-02-11T09:25:33;62.29;44.39;70.10;;
67900;Laerm;54700;51.796;10.956;2023-02-11T09:28:00;61.83;49.38;70.24;;
67900;Laerm;54700;51.796;10.956;2023-02-11T09:30:27;63.60;42.01;73.22;;
67900;Laerm;54700;51.796;10.956;2023-02-11T09:32:53;64.38;45.27;76.71;;
67900;Laerm;54700;51.796;10.956;2023-02-11T09:35:21;63.75;42.87;72.85;;
67900;Laerm;54700;51.796;10.956;2023-02-11T09:37:48;61.90;44.01;71.74;;
67900;Laerm;54700;51.796;10.956;2023-02-11T09:40:16;63.03;46.15;73.02;;
67900;Laerm;54700;51.796;10.956;2023-02-11T09:42:47;61.53;42.18;69.93;;
67900;Laerm;54700;51.796;10.956;2023-02-11T09:45:18;61.28;44.60;68.94;;
67900;Laerm;54700;51.796;10.956;2023-02-11T09:47:53;68.04;41.17;86.03;;
67900;Laerm;54700;51.796;10.956;2023-02-11T09:50:25;64.00;42.94;72.14;;
67900;Laerm;54700;51.796;10.956;2023-02-11T09:52:57;63.90;47.58;72.20;;
67900;Laerm;54700;51.796;10.956;2023-02-11T09:55:28;63.79;42.52;71.70;;
67900;Laerm;54700;51.796;10.956;2023-02-11T09:57:56;63.41;45.79;71.74;;
67900;Laerm;54700;51.796;10.956;2023-02-11T10:00:26;63.99;51.06;72.47;;
67900;Laerm;54700;51.796;10.956;2023-02-11T10:03:08;59.48;39.47;69.70;;
67900;Laerm;54700;51.796;10.956;2023-02-11T10:08:33;63.82;47.18;71.27;;
67900;Laerm;54700;51.796;10.956;2023-02-11T10:11:09;61.81;46.48;72.31;;
67900;Laerm;54700;51.796;10.956;2023-02-11T10:13:46;61.13;42.45;71.17;;
67900;Laerm;54700;51.796;10.956;2023-02-11T10:16:26;63.94;45.24;74.25;;
67900;Laerm;54700;51.796;10.956;2023-02-11T10:19:14;62.89;46.33;70.76;;
67900;Laerm;54700;51.796;10.956;2023-02-11T10:21:52;61.95;42.51;72.44;;
67900;Laerm;54700;51.796;10.956;2023-02-11T10:24:23;63.65;47.12;74.51;;
67900;Laerm;54700;51.796;10.956;2023-02-11T10:26:52;64.36;48.42;71.11;;
67900;Laerm;54700;51.796;10.956;2023-02-11T10:29:31;64.85;49.56;78.53;;
67900;Laerm;54700;51.796;10.956;2023-02-11T10:32:04;72.78;43.08;91.83;;
67900;Laerm;54700;51.796;10.956;2023-02-11T10:34:33;61.17;46.03;69.09;;
67900;Laerm;54700;51.796;10.956;2023-02-11T10:37:05;60.94;44.68;70.47;;
67900;Laerm;54700;51.796;10.956;2023-02-11T10:39:32;62.15;44.65;74.91;;
67900;Laerm;54700;51.796;10.956;2023-02-11T10:42:01;61.19;41.07;69.03;;
67900;Laerm;54700;51.796;10.956;2023-02-11T10:44:32;60.79;44.15;71.62;;
67900;Laerm;54700;51.796;10.956;2023-02-11T10:47:03;63.68;46.64;73.17;;
67900;Laerm;54700;51.796;10.956;2023-02-11T10:49:36;61.19;41.13;70.53;;
67900;Laerm;54700;51.796;10.956;2023-02-11T10:52:23;62.04;45.09;72.18;;
67900;Laerm;54700;51.796;10.956;2023-02-11T10:54:59;64.68;49.43;79.01;;
67900;Laerm;54700;51.796;10.956;2023-02-11T10:57:30;63.32;44.42;70.08;;
67900;Laerm;54700;51.796;10.956;2023-02-11T11:00:04;63.26;43.71;70.80;;
67900;Laerm;54700;51.796;10.956;2023-02-11T11:02:33;61.85;46.49;73.88;;
67900;Laerm;54700;51.796;10.956;2023-02-11T11:05:05;61.83;44.22;79.65;;
67900;Laerm;54700;51.796;10.956;2023-02-11T11:07:33;63.22;50.70;76.56;;
67900;Laerm;54700;51.796;10.956;2023-02-11T11:10:04;60.76;43.02;70.50;;
67900;Laerm;54700;51.796;10.956;2023-02-11T11:12:35;62.40;43.62;72.05;;
67900;Laerm;54700;51.796;10.956;2023-02-11T11:15:17;59.70;43.40;69.18;;
67900;Laerm;54700;51.796;10.956;2023-02-11T11:17:46;60.92;43.87;72.03;;
67900;Laerm;54700;51.796;10.956;2023-02-11T11:20:18;62.00;42.40;71.21;;
67900;Laerm;54700;51.796;10.956;2023-02-11T11:22:48;62.00;44.43;75.96;;
67900;Laerm;54700;51.796;10.956;2023-02-11T11:25:28;60.48;43.03;70.69;;
67900;Laerm;54700;51.796;10.956;2023-02-11T11:28:02;62.00;43.14;71.42;;
67900;Laerm;54700;51.796;10.956;2023-02-11T11:30:32;62.16;44.99;71.82;;
67900;Laerm;54700;51.796;10.956;2023-02-11T11:32:59;63.42;44.95;74.84;;
67900;Laerm;54700;51.796;10.956;2023-02-11T11:35:29;61.88;43.67;73.67;;
67900;Laerm;54700;51.796;10.956;2023-02-11T11:38:00;61.58;42.97;73.88;;
67900;Laerm;54700;51.796;10.956;2023-02-11T11:40:29;59.11;42.75;68.67;;
67900;Laerm;54700;51.796;10.956;2023-02-11T11:43:05;62.06;44.44;71.53;;
67900;Laerm;54700;51.796;10.956;2023-02-11T11:45:39;62.25;43.23;77.75;;
67900;Laerm;54700;51.796;10.956;2023-02-11T11:48:21;63.39;46.36;72.55;;
67900;Laerm;54700;51.796;10.956;2023-02-11T11:50:52;65.25;44.56;82.77;;
67900;Laerm;54700;51.796;10.956;2023-02-11T11:53:28;60.07;44.89;69.53;;
67900;Laerm;54700;51.796;10.956;2023-02-11T11:56:02;62.35;45.67;70.64;;
67900;Laerm;54700;51.796;10.956;2023-02-11T11:58:30;58.79;43.86;70.67;;
67900;Laerm;54700;51.796;10.956;2023-02-11T12:01:05;61.16;47.00;70.98;;
67900;Laerm;54700;51.796;10.956;2023-02-11T12:04:02;60.41;41.55;69.94;;
67900;Laerm;54700;51.796;10.956;2023-02-11T12:06:40;63.02;46.46;75.80;;
67900;Laerm;54700;51.796;10.956;2023-02-11T12:09:18;60.87;46.43;70.43;;
67900;Laerm;54700;51.796;10.956;2023-02-11T12:14:48;63.42;43.34;76.20;;
67900;Laerm;54700;51.796;10.956;2023-02-11T12:17:30;62.89;47.21;70.42;;
67900;Laerm;54700;51.796;10.956;2023-02-11T12:20:16;61.97;43.45;72.52;;
67900;Laerm;54700;51.796;10.956;2023-02-11T12:22:55;63.35;44.62;71.04;;
67900;Laerm;54700;51.796;10.956;2023-02-11T12:25:32;61.42;43.77;70.47;;
67900;Laerm;54700;51.796;10.956;2023-02-11T12:28:13;63.05;44.76;71.91;;
67900;Laerm;54700;51.796;10.956;2023-02-11T12:33:59;62.56;44.63;71.61;;
67900;Laerm;54700;51.796;10.956;2023-02-11T12:36:41;63.55;44.90;80.25;;
67900;Laerm;54700;51.796;10.956;2023-02-11T12:39:19;61.88;44.77;73.80;;
67900;Laerm;54700;51.796;10.956;2023-02-11T12:42:11;62.24;43.68;70.77;;
67900;Laerm;54700;51.796;10.956;2023-02-11T12:45:08;62.00;42.21;70.92;;
67900;Laerm;54700;51.796;10.956;2023-02-11T12:47:46;59.98;43.38;70.53;;
67900;Laerm;54700;51.796;10.956;2023-02-11T12:50:21;58.99;41.88;71.17;;
67900;Laerm;54700;51.796;10.956;2023-02-11T12:53:10;62.16;45.48;69.12;;
67900;Laerm;54700;51.796;10.956;2023-02-11T12:55:45;63.49;46.20;70.05;;
67900;Laerm;54700;51.796;10.956;2023-02-11T12:58:17;60.89;44.55;71.20;;
67900;Laerm;54700;51.796;10.956;2023-02-11T13:00:50;61.10;46.39;71.28;;
67900;Laerm;54700;51.796;10.956;2023-02-11T13:03:22;62.19;42.99;70.37;;
67900;Laerm;54700;51.796;10.956;2023-02-11T13:05:53;62.02;47.56;68.72;;
67900;Laerm;54700;51.796;10.956;2023-02-11T13:08:26;61.32;43.88;71.24;;
67900;Laerm;54700;51.796;10.956;2023-02-11T13:10:56;62.82;44.94;74.20;;
67900;Laerm;54700;51.796;10.956;2023-02-11T13:13:28;60.00;41.99;71.41;;
67900;Laerm;54700;51.796;10.956;2023-02-11T13:15:59;62.84;42.59;71.38;;
67900;Laerm;54700;51.796;10.956;2023-02-11T13:18:48;62.29;41.96;72.30;;
67900;Laerm;54700;51.796;10.956;2023-02-11T13:21:36;63.48;45.12;70.65;;
67900;Laerm;54700;51.796;10.956;2023-02-11T13:24:16;61.64;43.53;70.16;;
67900;Laerm;54700;51.796;10.956;2023-02-11T13:26:51;61.06;42.40;71.90;;
67900;Laerm;54700;51.796;10.956;2023-02-11T13:29:28;62.76;48.48;71.73;;
67900;Laerm;54700;51.796;10.956;2023-02-11T13:32:05;61.81;44.56;69.74;;
67900;Laerm;54700;51.796;10.956;2023-02-11T13:34:54;62.23;44.63;70.42;;
67900;Laerm;54700;51.796;10.956;2023-02-11T13:37:23;63.20;44.14;72.11;;
67900;Laerm;54700;51.796;10.956;2023-02-11T13:39:59;62.38;41.54;72.45;;
67900;Laerm;54700;51.796;10.956;2023-02-11T13:42:26;61.17;39.67;69.09;;
67900;Laerm;54700;51.796;10.956;2023-02-11T13:44:56;61.32;43.57;71.54;;
67900;Laerm;54700;51.796;10.956;2023-02-11T13:47:29;58.22;40.87;68.25;;
67900;Laerm;54700;51.796;10.956;2023-02-11T13:49:57;61.26;46.83;69.31;;
67900;Laerm;54700;51.796;10.956;2023-02-11T13:52:28;62.85;47.42;75.44;;
67900;Laerm;54700;51.796;10.956;2023-02-11T13:55:06;59.52;41.45;69.82;;
67900;Laerm;54700;51.796;10.956;2023-02-11T13:57:39;59.73;40.91;70.64;;
67900;Laerm;54700;51.796;10.956;2023-02-11T14:03:22;62.08;44.84;71.68;;
67900;Laerm;54700;51.796;10.956;2023-02-11T14:06:15;57.64;42.77;68.67;;
67900;Laerm;54700;51.796;10.956;2023-02-11T14:11:52;62.91;43.53;72.19;;
67900;Laerm;54700;51.796;10.956;2023-02-11T14:14:23;60.50;42.77;71.09;;
67900;Laerm;54700;51.796;10.956;2023-02-11T14:17:27;62.04;43.87;73.99;;